createdAt,value
2018-05-16T00:00:22.690Z,14.40
2018-05-16T00:00:54.316Z,14.40
2018-05-16T00:01:25.950Z,14.40
2018-05-16T00:01:57.596Z,14.40
2018-05-16T00:02:29.223Z,14.40
2018-05-16T00:03:00.870Z,14.40
2018-05-16T00:03:32.512Z,14.40
2018-05-16T00:04:04.171Z,14.50
2018-05-16T00:04:35.814Z,14.50
2018-05-16T00:05:07.458Z,14.50
2018-05-16T00:05:39.125Z,14.50
2018-05-16T00:06:10.882Z,14.40
2018-05-16T00:06:42.536Z,14.50
2018-05-16T00:07:14.168Z,14.50
2018-05-16T00:07:45.797Z,14.50
2018-05-16T00:08:17.466Z,14.50
2018-05-16T00:08:49.109Z,14.50
2018-05-16T00:09:20.741Z,14.40
2018-05-16T00:09:52.391Z,14.40
2018-05-16T00:10:24.024Z,14.50
2018-05-16T00:10:55.656Z,14.40
2018-05-16T00:11:27.298Z,14.40
2018-05-16T00:11:58.947Z,14.50
2018-05-16T00:12:30.571Z,14.40
2018-05-16T00:13:02.196Z,14.40
2018-05-16T00:13:33.818Z,14.40
2018-05-16T00:14:05.453Z,14.30
2018-05-16T00:14:37.090Z,14.40
2018-05-16T00:15:08.728Z,14.20
2018-05-16T00:15:40.397Z,14.30
2018-05-16T00:16:12.036Z,14.30
2018-05-16T00:16:43.656Z,14.40
2018-05-16T00:17:15.292Z,14.20
2018-05-16T00:17:46.930Z,14.30
2018-05-16T00:18:18.588Z,14.30
2018-05-16T00:18:50.227Z,14.30
2018-05-16T00:19:21.875Z,14.30
2018-05-16T00:19:53.495Z,14.20
2018-05-16T00:20:25.144Z,14.30
2018-05-16T00:20:56.792Z,14.20
2018-05-16T00:21:28.440Z,14.20
2018-05-16T00:22:00.056Z,14.10
2018-05-16T00:22:31.672Z,14.20
2018-05-16T00:23:03.305Z,14.20
2018-05-16T00:23:34.958Z,14.20
2018-05-16T00:24:06.602Z,14.20
2018-05-16T00:24:38.250Z,14.20
2018-05-16T00:25:09.888Z,14.10
2018-05-16T00:25:41.522Z,14.20
2018-05-16T00:26:13.146Z,14.20
2018-05-16T00:26:44.768Z,14.20
2018-05-16T00:27:16.418Z,14.20
2018-05-16T00:27:48.040Z,14.20
2018-05-16T00:28:19.658Z,14.10
2018-05-16T00:28:51.286Z,14.20
2018-05-16T00:29:22.922Z,14.20
2018-05-16T00:29:54.557Z,14.10
2018-05-16T00:30:26.188Z,14.10
2018-05-16T00:30:57.828Z,14.20
2018-05-16T00:31:29.452Z,14.10
2018-05-16T00:32:01.128Z,14.10
2018-05-16T00:32:32.756Z,14.10
2018-05-16T00:33:04.415Z,14.10
2018-05-16T00:33:36.060Z,14.00
2018-05-16T00:34:07.698Z,14.00
2018-05-16T00:34:39.336Z,14.10
2018-05-16T00:35:10.968Z,14.00
2018-05-16T00:35:42.589Z,14.00
2018-05-16T00:36:14.212Z,14.00
2018-05-16T00:36:45.832Z,14.00
2018-05-16T00:37:17.472Z,14.00
2018-05-16T00:37:49.100Z,14.00
2018-05-16T00:38:20.756Z,14.10
2018-05-16T00:38:52.374Z,14.00
2018-05-16T00:39:24.052Z,14.00
2018-05-16T00:39:55.728Z,13.90
2018-05-16T00:40:27.356Z,13.90
2018-05-16T00:40:58.991Z,14.00
2018-05-16T00:41:30.623Z,13.90
2018-05-16T00:42:02.274Z,13.90
2018-05-16T00:42:33.908Z,13.80
2018-05-16T00:43:05.570Z,13.90
2018-05-16T00:43:37.208Z,13.80
2018-05-16T00:44:08.840Z,13.90
2018-05-16T00:44:40.456Z,13.90
2018-05-16T00:45:12.088Z,13.80
2018-05-16T00:45:43.714Z,13.90
2018-05-16T00:46:15.360Z,13.80
2018-05-16T00:46:47.008Z,13.80
2018-05-16T00:47:18.634Z,13.80
2018-05-16T00:47:50.264Z,13.80
2018-05-16T00:48:21.891Z,13.80
2018-05-16T00:48:53.530Z,13.80
2018-05-16T00:49:25.226Z,13.80
2018-05-16T00:49:56.840Z,13.80
2018-05-16T00:50:28.492Z,13.90
2018-05-16T00:51:18.588Z,13.80
2018-05-16T00:51:50.183Z,13.80
2018-05-16T00:52:21.811Z,13.80
2018-05-16T00:52:53.432Z,13.70
2018-05-16T00:53:25.067Z,13.70
2018-05-16T00:53:56.710Z,13.70
2018-05-16T00:54:28.332Z,13.70
2018-05-16T00:54:59.946Z,13.70
2018-05-16T00:55:31.579Z,13.60
2018-05-16T00:56:03.252Z,13.70
2018-05-16T00:56:34.900Z,13.60
2018-05-16T00:57:06.549Z,13.70
2018-05-16T00:57:38.155Z,13.70
2018-05-16T00:58:09.803Z,13.70
2018-05-16T00:58:41.432Z,13.60
2018-05-16T00:59:13.056Z,13.70
2018-05-16T00:59:44.692Z,13.60
2018-05-16T01:00:16.351Z,13.60
2018-05-16T01:00:48.015Z,13.50
2018-05-16T01:01:19.706Z,13.60
2018-05-16T01:01:51.362Z,13.60
2018-05-16T01:02:23.008Z,13.60
2018-05-16T01:02:54.656Z,13.60
2018-05-16T01:03:26.326Z,13.70
2018-05-16T01:03:57.970Z,13.60
2018-05-16T01:04:29.584Z,13.50
2018-05-16T01:05:01.216Z,13.50
2018-05-16T01:05:32.856Z,13.60
2018-05-16T01:06:04.504Z,13.60
2018-05-16T01:06:36.160Z,13.60
2018-05-16T01:07:07.820Z,13.60
2018-05-16T01:07:39.450Z,13.50
2018-05-16T01:08:11.099Z,13.50
2018-05-16T01:08:42.743Z,13.50
2018-05-16T01:09:14.376Z,13.50
2018-05-16T01:09:46.051Z,13.50
2018-05-16T01:10:17.702Z,13.50
2018-05-16T01:10:49.323Z,13.60
2018-05-16T01:11:20.971Z,13.60
2018-05-16T01:11:52.650Z,13.60
2018-05-16T01:12:24.304Z,13.50
2018-05-16T01:12:55.935Z,13.60
2018-05-16T01:13:27.585Z,13.50
2018-05-16T01:13:59.218Z,13.60
2018-05-16T01:14:30.850Z,13.50
2018-05-16T01:15:02.537Z,13.60
2018-05-16T01:15:34.185Z,13.60
2018-05-16T01:16:05.829Z,13.60
2018-05-16T01:16:37.472Z,13.60
2018-05-16T01:17:09.090Z,13.60
2018-05-16T01:17:40.723Z,13.60
2018-05-16T01:18:12.360Z,13.60
2018-05-16T01:18:43.994Z,13.60
2018-05-16T01:19:15.660Z,13.60
2018-05-16T01:19:47.322Z,13.60
2018-05-16T01:20:19.008Z,13.60
2018-05-16T01:20:50.674Z,13.70
2018-05-16T01:21:22.299Z,13.80
2018-05-16T01:21:53.911Z,13.70
2018-05-16T01:22:25.536Z,13.70
2018-05-16T01:22:57.209Z,13.60
2018-05-16T01:23:28.879Z,13.80
2018-05-16T01:24:00.515Z,13.70
2018-05-16T01:24:32.147Z,13.70
2018-05-16T01:25:03.793Z,13.80
2018-05-16T01:25:35.416Z,13.70
2018-05-16T01:26:07.051Z,13.80
2018-05-16T01:26:38.680Z,13.70
2018-05-16T01:27:10.301Z,13.80
2018-05-16T01:27:41.963Z,13.80
2018-05-16T01:28:13.613Z,13.80
2018-05-16T01:28:45.251Z,13.70
2018-05-16T01:29:16.877Z,13.70
2018-05-16T01:29:48.521Z,13.70
2018-05-16T01:30:20.155Z,13.80
2018-05-16T01:30:51.808Z,13.80
2018-05-16T01:31:23.457Z,13.80
2018-05-16T01:31:55.088Z,13.80
2018-05-16T01:32:26.715Z,13.90
2018-05-16T01:32:58.351Z,13.90
2018-05-16T01:33:29.995Z,13.90
2018-05-16T01:34:01.635Z,13.90
2018-05-16T01:34:33.263Z,13.90
2018-05-16T01:35:04.894Z,13.90
2018-05-16T01:35:36.526Z,14.00
2018-05-16T01:36:08.157Z,14.00
2018-05-16T01:36:39.775Z,13.90
2018-05-16T01:37:11.415Z,14.00
2018-05-16T01:37:43.033Z,14.10
2018-05-16T01:38:14.667Z,14.00
2018-05-16T01:38:46.294Z,14.10
2018-05-16T01:39:17.915Z,14.10
2018-05-16T01:39:49.618Z,14.20
2018-05-16T01:40:21.159Z,14.10
2018-05-16T01:40:52.787Z,14.20
2018-05-16T01:41:24.398Z,14.10
2018-05-16T01:41:56.060Z,14.10
2018-05-16T01:42:27.696Z,14.20
2018-05-16T01:42:59.321Z,14.20
2018-05-16T01:43:30.948Z,14.20
2018-05-16T01:44:02.647Z,14.20
2018-05-16T01:44:34.253Z,14.20
2018-05-16T01:45:05.896Z,14.20
2018-05-16T01:45:37.545Z,14.30
2018-05-16T01:46:09.159Z,14.30
2018-05-16T01:46:40.846Z,14.40
2018-05-16T01:47:12.483Z,14.40
2018-05-16T01:47:44.125Z,14.30
2018-05-16T01:48:15.765Z,14.30
2018-05-16T01:49:05.870Z,14.40
2018-05-16T01:49:37.471Z,14.40
2018-05-16T01:50:09.112Z,14.50
2018-05-16T01:50:40.756Z,14.40
2018-05-16T01:51:12.419Z,14.40
2018-05-16T01:51:44.064Z,14.50
2018-05-16T01:52:15.695Z,14.40
2018-05-16T01:52:47.348Z,14.40
2018-05-16T01:53:18.988Z,14.50
2018-05-16T01:53:50.630Z,14.50
2018-05-16T01:54:22.264Z,14.50
2018-05-16T01:54:53.927Z,14.40
2018-05-16T01:55:25.562Z,14.50
2018-05-16T01:55:57.184Z,14.50
2018-05-16T01:56:28.866Z,14.50
2018-05-16T01:57:00.493Z,14.50
2018-05-16T01:57:32.109Z,14.60
2018-05-16T01:58:03.773Z,14.40
2018-05-16T01:58:35.412Z,14.40
2018-05-16T01:59:07.060Z,14.40
2018-05-16T01:59:38.703Z,14.40
2018-05-16T02:00:10.344Z,14.40
2018-05-16T02:00:41.981Z,14.30
2018-05-16T02:01:13.609Z,14.40
2018-05-16T02:01:45.249Z,14.30
2018-05-16T02:02:16.880Z,14.40
2018-05-16T02:02:48.526Z,14.30
2018-05-16T02:03:20.157Z,14.40
2018-05-16T02:03:52.183Z,14.40
2018-05-16T02:04:23.837Z,14.30
2018-05-16T02:04:55.487Z,14.30
2018-05-16T02:05:27.107Z,14.30
2018-05-16T02:05:58.731Z,14.30
2018-05-16T02:06:30.361Z,14.30
2018-05-16T02:07:01.970Z,14.30
2018-05-16T02:07:33.646Z,14.30
2018-05-16T02:08:05.299Z,14.30
2018-05-16T02:08:36.958Z,14.30
2018-05-16T02:09:08.623Z,14.40
2018-05-16T02:09:40.267Z,14.40
2018-05-16T02:10:11.913Z,14.30
2018-05-16T02:10:43.547Z,14.40
2018-05-16T02:11:15.220Z,14.50
2018-05-16T02:11:46.857Z,14.50
2018-05-16T02:12:18.505Z,14.40
2018-05-16T02:12:50.149Z,14.60
2018-05-16T02:13:21.798Z,14.60
2018-05-16T02:13:53.419Z,14.50
2018-05-16T02:14:25.049Z,14.40
2018-05-16T02:14:56.676Z,14.40
2018-05-16T02:15:28.331Z,14.40
2018-05-16T02:15:59.971Z,14.40
2018-05-16T02:16:31.597Z,14.40
2018-05-16T02:17:03.261Z,14.40
2018-05-16T02:17:34.931Z,14.50
2018-05-16T02:18:06.546Z,14.50
2018-05-16T02:18:38.180Z,14.60
2018-05-16T02:19:09.801Z,14.50
2018-05-16T02:19:41.451Z,14.50
2018-05-16T02:20:13.093Z,14.50
2018-05-16T02:20:44.727Z,14.60
2018-05-16T02:21:16.695Z,14.60
2018-05-16T02:21:48.339Z,14.70
2018-05-16T02:22:19.970Z,14.60
2018-05-16T02:22:51.608Z,14.60
2018-05-16T02:23:23.249Z,14.60
2018-05-16T02:23:54.884Z,14.60
2018-05-16T02:24:26.519Z,14.60
2018-05-16T02:24:58.173Z,14.70
2018-05-16T02:25:29.800Z,14.60
2018-05-16T02:26:01.431Z,14.60
2018-05-16T02:26:33.058Z,14.60
2018-05-16T02:27:04.694Z,14.60
2018-05-16T02:27:36.376Z,14.70
2018-05-16T02:28:08.015Z,14.60
2018-05-16T02:28:39.690Z,14.60
2018-05-16T02:29:11.288Z,14.60
2018-05-16T02:29:42.910Z,14.60
2018-05-16T02:30:14.536Z,14.60
2018-05-16T02:30:46.180Z,14.60
2018-05-16T02:31:17.806Z,14.50
2018-05-16T02:31:49.466Z,14.70
2018-05-16T02:32:21.092Z,14.70
2018-05-16T02:32:52.724Z,14.60
2018-05-16T02:33:24.355Z,14.60
2018-05-16T02:36:36.742Z,14.70
2018-05-16T02:37:08.380Z,14.60
2018-05-16T02:37:39.997Z,14.60
2018-05-16T02:38:11.628Z,14.60
2018-05-16T02:38:43.262Z,14.50
2018-05-16T02:39:14.896Z,14.60
2018-05-16T02:39:46.527Z,14.40
2018-05-16T02:40:18.206Z,14.40
2018-05-16T02:40:49.851Z,14.50
2018-05-16T02:41:21.488Z,14.40
2018-05-16T02:41:53.124Z,14.50
2018-05-16T02:42:24.769Z,14.30
2018-05-16T02:42:56.401Z,14.30
2018-05-16T02:43:28.036Z,14.30
2018-05-16T02:43:59.676Z,14.30
2018-05-16T02:44:31.312Z,14.30
2018-05-16T02:45:02.962Z,14.30
2018-05-16T02:45:34.641Z,14.20
2018-05-16T02:46:06.251Z,14.20
2018-05-16T02:46:37.918Z,14.30
2018-05-16T02:47:09.540Z,14.30
2018-05-16T02:47:41.190Z,14.30
2018-05-16T02:48:12.803Z,14.30
2018-05-16T02:48:44.420Z,14.30
2018-05-16T02:49:16.030Z,14.30
2018-05-16T02:49:47.669Z,14.40
2018-05-16T02:50:19.306Z,14.30
2018-05-16T02:50:50.986Z,14.30
2018-05-16T02:51:22.617Z,14.30
2018-05-16T02:51:54.248Z,14.30
2018-05-16T02:52:25.900Z,14.30
2018-05-16T02:52:57.534Z,14.30
2018-05-16T02:53:29.184Z,14.20
2018-05-16T02:54:00.857Z,14.30
2018-05-16T02:54:32.660Z,14.20
2018-05-16T02:55:04.174Z,14.20
2018-05-16T02:55:35.802Z,14.30
2018-05-16T02:56:07.457Z,14.30
2018-05-16T02:56:39.092Z,14.30
2018-05-16T02:57:10.762Z,14.20
2018-05-16T02:57:42.417Z,14.30
2018-05-16T02:58:14.076Z,14.30
2018-05-16T02:58:45.701Z,14.30
2018-05-16T02:59:17.360Z,14.30
2018-05-16T02:59:48.971Z,14.30
2018-05-16T03:00:20.604Z,14.40
2018-05-16T03:00:52.258Z,14.40
2018-05-16T03:01:23.907Z,14.30
2018-05-16T03:01:55.555Z,14.40
2018-05-16T03:02:27.188Z,14.30
2018-05-16T03:02:58.823Z,14.40
2018-05-16T03:03:30.486Z,14.40
2018-05-16T03:04:02.135Z,14.40
2018-05-16T03:04:33.783Z,14.40
2018-05-16T03:05:05.438Z,14.50
2018-05-16T03:05:37.065Z,14.50
2018-05-16T03:06:08.721Z,14.50
2018-05-16T03:06:40.380Z,14.40
2018-05-16T03:07:11.994Z,14.40
2018-05-16T03:07:43.616Z,14.50
2018-05-16T03:08:15.277Z,14.40
2018-05-16T03:08:46.892Z,14.50
2018-05-16T03:09:18.536Z,14.40
2018-05-16T03:09:50.165Z,14.50
2018-05-16T03:10:21.792Z,14.50
2018-05-16T03:10:53.463Z,14.50
2018-05-16T03:11:25.101Z,14.60
2018-05-16T03:11:56.765Z,14.50
2018-05-16T03:12:28.413Z,14.50
2018-05-16T03:13:00.059Z,14.50
2018-05-16T03:13:31.711Z,14.50
2018-05-16T03:14:03.405Z,14.50
2018-05-16T03:14:35.033Z,14.60
2018-05-16T03:15:06.698Z,14.60
2018-05-16T03:15:38.343Z,14.70
2018-05-16T03:16:09.975Z,14.60
2018-05-16T03:16:41.623Z,14.60
2018-05-16T03:17:13.249Z,14.60
2018-05-16T03:17:44.883Z,14.40
2018-05-16T03:18:16.535Z,14.60
2018-05-16T03:18:48.171Z,14.60
2018-05-16T03:19:19.819Z,14.50
2018-05-16T03:19:51.423Z,14.50
2018-05-16T03:20:23.105Z,14.60
2018-05-16T03:20:54.758Z,14.60
2018-05-16T03:21:26.420Z,14.50
2018-05-16T03:21:58.075Z,14.40
2018-05-16T03:22:29.710Z,14.40
2018-05-16T03:23:01.331Z,14.50
2018-05-16T03:23:32.967Z,14.50
2018-05-16T03:24:04.595Z,14.60
2018-05-16T03:24:36.232Z,14.50
2018-05-16T03:25:07.882Z,14.50
2018-05-16T03:25:39.537Z,14.60
2018-05-16T03:26:11.180Z,14.60
2018-05-16T03:26:42.831Z,14.60
2018-05-16T03:27:14.471Z,14.70
2018-05-16T03:27:46.083Z,14.70
2018-05-16T03:28:17.695Z,14.60
2018-05-16T03:28:49.341Z,14.60
2018-05-16T03:29:20.983Z,14.60
2018-05-16T03:29:52.623Z,14.60
2018-05-16T03:30:24.507Z,14.70
2018-05-16T03:30:56.143Z,14.60
2018-05-16T03:31:27.770Z,14.60
2018-05-16T03:31:59.475Z,14.60
2018-05-16T03:32:31.109Z,14.60
2018-05-16T03:33:02.768Z,14.60
2018-05-16T03:33:34.427Z,14.60
2018-05-16T03:34:06.120Z,14.60
2018-05-16T03:34:37.704Z,14.60
2018-05-16T03:35:09.333Z,14.70
2018-05-16T03:35:40.953Z,14.70
2018-05-16T03:36:12.581Z,14.60
2018-05-16T03:36:44.237Z,14.60
2018-05-16T03:37:15.870Z,14.60
2018-05-16T03:37:47.500Z,14.70
2018-05-16T03:38:19.171Z,14.70
2018-05-16T03:38:50.791Z,14.70
2018-05-16T03:39:22.415Z,14.70
2018-05-16T03:39:54.059Z,14.60
2018-05-16T03:40:25.728Z,14.70
2018-05-16T03:40:57.371Z,14.70
2018-05-16T03:41:29.011Z,14.70
2018-05-16T03:42:00.649Z,14.70
2018-05-16T03:42:32.307Z,14.70
2018-05-16T03:43:03.939Z,14.70
2018-05-16T03:43:35.579Z,14.70
2018-05-16T03:44:07.225Z,14.60
2018-05-16T03:44:38.864Z,14.80
2018-05-16T03:45:10.529Z,14.80
2018-05-16T03:45:42.181Z,14.70
2018-05-16T03:46:13.817Z,14.70
2018-05-16T03:46:45.445Z,14.80
2018-05-16T03:47:17.077Z,14.70
2018-05-16T03:47:48.713Z,14.70
2018-05-16T03:48:20.354Z,14.80
2018-05-16T03:48:51.991Z,14.80
2018-05-16T03:49:23.629Z,14.70
2018-05-16T03:49:55.261Z,14.80
2018-05-16T03:50:26.893Z,14.80
2018-05-16T03:50:58.535Z,14.80
2018-05-16T03:51:30.179Z,14.80
2018-05-16T03:52:01.874Z,14.90
2018-05-16T03:52:33.546Z,14.80
2018-05-16T03:53:05.135Z,14.80
2018-05-16T03:53:36.775Z,14.90
2018-05-16T03:54:08.426Z,14.90
2018-05-16T03:54:40.090Z,14.80
2018-05-16T03:55:11.715Z,14.70
2018-05-16T03:55:43.345Z,14.70
2018-05-16T03:56:14.963Z,14.70
2018-05-16T03:56:46.585Z,14.70
2018-05-16T03:57:36.847Z,14.70
2018-05-16T03:58:27.079Z,14.70
2018-05-16T03:59:17.219Z,14.70
2018-05-16T04:00:07.509Z,14.70
2018-05-16T04:00:57.637Z,14.70
2018-05-16T04:01:47.965Z,14.80
2018-05-16T04:02:38.231Z,14.70
2018-05-16T04:03:28.415Z,14.70
2018-05-16T04:04:16.309Z,14.60
2018-05-16T04:04:47.963Z,14.70
2018-05-16T04:05:19.591Z,14.60
2018-05-16T04:05:51.229Z,14.70
2018-05-16T04:06:22.905Z,14.80
2018-05-16T04:06:54.531Z,14.70
2018-05-16T04:07:26.173Z,14.70
2018-05-16T04:07:57.797Z,14.80
2018-05-16T04:08:29.437Z,14.70
2018-05-16T04:09:01.067Z,14.90
2018-05-16T04:09:32.705Z,14.80
2018-05-16T04:10:04.360Z,14.60
2018-05-16T04:10:36.015Z,14.80
2018-05-16T04:11:07.674Z,14.70
2018-05-16T04:11:39.391Z,14.70
2018-05-16T04:12:11.031Z,14.70
2018-05-16T04:12:42.661Z,14.70
2018-05-16T04:13:14.293Z,14.70
2018-05-16T04:13:45.942Z,14.80
2018-05-16T04:14:17.568Z,14.70
2018-05-16T04:14:49.207Z,14.60
2018-05-16T04:15:20.841Z,14.70
2018-05-16T04:15:52.466Z,14.80
2018-05-16T04:16:24.095Z,14.80
2018-05-16T04:16:55.761Z,14.80
2018-05-16T04:17:27.373Z,14.70
2018-05-16T04:17:58.998Z,14.70
2018-05-16T04:18:30.639Z,14.70
2018-05-16T04:19:02.297Z,14.60
2018-05-16T04:19:33.917Z,14.60
2018-05-16T04:20:05.574Z,14.60
2018-05-16T04:20:37.205Z,14.70
2018-05-16T04:21:08.853Z,14.70
2018-05-16T04:21:40.549Z,14.70
2018-05-16T04:22:12.167Z,14.70
2018-05-16T04:22:43.797Z,14.70
2018-05-16T04:23:15.443Z,14.60
2018-05-16T04:23:47.067Z,14.60
2018-05-16T04:24:18.730Z,14.70
2018-05-16T04:24:50.363Z,14.70
2018-05-16T04:25:21.995Z,14.70
2018-05-16T04:25:53.605Z,14.50
2018-05-16T04:26:25.260Z,14.60
2018-05-16T04:26:56.888Z,14.50
2018-05-16T04:27:28.525Z,14.50
2018-05-16T04:28:00.179Z,14.60
2018-05-16T04:28:31.823Z,14.60
2018-05-16T04:29:03.457Z,14.60
2018-05-16T04:29:35.099Z,14.70
2018-05-16T04:30:06.747Z,14.70
2018-05-16T04:30:38.383Z,14.70
2018-05-16T04:31:10.057Z,14.70
2018-05-16T04:31:41.677Z,14.60
2018-05-16T04:32:13.309Z,14.60
2018-05-16T04:32:45.001Z,14.60
2018-05-16T04:33:16.547Z,14.60
2018-05-16T04:33:48.191Z,14.60
2018-05-16T04:34:19.815Z,14.60
2018-05-16T04:34:51.441Z,14.60
2018-05-16T04:35:23.078Z,14.70
2018-05-16T04:35:54.710Z,14.70
2018-05-16T04:36:26.345Z,14.60
2018-05-16T04:36:57.966Z,14.70
2018-05-16T04:37:29.599Z,14.60
2018-05-16T04:38:01.257Z,14.50
2018-05-16T04:38:32.885Z,14.60
2018-05-16T04:39:04.548Z,14.50
2018-05-16T04:39:36.187Z,14.60
2018-05-16T04:40:07.848Z,14.50
2018-05-16T04:40:39.487Z,14.60
2018-05-16T04:41:11.119Z,14.60
2018-05-16T04:41:42.835Z,14.60
2018-05-16T04:42:14.415Z,14.60
2018-05-16T04:42:46.063Z,14.60
2018-05-16T04:43:17.696Z,14.60
2018-05-16T04:43:49.347Z,14.60
2018-05-16T04:44:20.975Z,14.60
2018-05-16T04:44:52.609Z,14.60
2018-05-16T04:45:24.249Z,14.60
2018-05-16T04:45:55.889Z,14.60
2018-05-16T04:46:27.523Z,14.60
2018-05-16T04:46:59.145Z,14.60
2018-05-16T04:47:30.767Z,14.60
2018-05-16T04:48:02.405Z,14.60
2018-05-16T04:48:34.043Z,14.70
2018-05-16T04:49:05.675Z,14.60
2018-05-16T04:49:37.315Z,14.60
2018-05-16T04:50:08.935Z,14.60
2018-05-16T04:50:40.563Z,14.70
2018-05-16T04:51:12.182Z,14.70
2018-05-16T04:51:43.830Z,14.70
2018-05-16T04:52:15.447Z,14.80
2018-05-16T04:52:47.155Z,14.80
2018-05-16T04:53:18.761Z,14.80
2018-05-16T04:53:50.378Z,14.80
2018-05-16T04:54:22.013Z,14.90
2018-05-16T04:54:53.639Z,14.90
2018-05-16T04:55:25.269Z,14.80
2018-05-16T04:55:56.912Z,14.80
2018-05-16T04:56:28.535Z,14.70
2018-05-16T04:57:00.197Z,14.80
2018-05-16T04:57:31.839Z,14.80
2018-05-16T04:58:03.500Z,14.80
2018-05-16T04:58:35.121Z,14.80
2018-05-16T04:59:06.767Z,14.80
2018-05-16T04:59:38.397Z,14.90
2018-05-16T05:00:10.023Z,14.80
2018-05-16T05:00:41.647Z,14.80
2018-05-16T05:01:13.301Z,14.90
2018-05-16T05:01:44.923Z,14.80
2018-05-16T05:02:16.551Z,14.80
2018-05-16T05:02:48.175Z,14.90
2018-05-16T05:03:19.826Z,14.70
2018-05-16T05:03:51.463Z,14.70
2018-05-16T05:04:23.115Z,14.60
2018-05-16T05:04:54.759Z,14.70
2018-05-16T05:05:26.395Z,14.60
2018-05-16T05:05:58.038Z,14.70
2018-05-16T05:06:29.665Z,14.70
2018-05-16T05:07:01.330Z,14.70
2018-05-16T05:07:32.972Z,14.60
2018-05-16T05:08:04.637Z,14.60
2018-05-16T05:08:36.262Z,14.70
2018-05-16T05:09:07.879Z,14.70
2018-05-16T05:09:39.512Z,14.60
2018-05-16T05:10:11.173Z,14.60
2018-05-16T05:10:42.825Z,14.50
2018-05-16T05:11:14.451Z,14.60
2018-05-16T05:11:46.073Z,14.40
2018-05-16T05:12:17.750Z,14.30
2018-05-16T05:12:49.403Z,14.40
2018-05-16T05:13:21.036Z,14.40
2018-05-16T05:13:52.680Z,14.40
2018-05-16T05:14:24.316Z,14.40
2018-05-16T05:14:55.959Z,14.40
2018-05-16T05:15:27.598Z,14.40
2018-05-16T05:15:59.273Z,14.30
2018-05-16T05:16:30.909Z,14.20
2018-05-16T05:17:02.563Z,14.20
2018-05-16T05:17:34.198Z,14.20
2018-05-16T05:18:05.842Z,14.20
2018-05-16T05:18:37.638Z,14.20
2018-05-16T05:19:09.145Z,14.40
2018-05-16T05:19:40.771Z,14.30
2018-05-16T05:20:12.425Z,14.30
2018-05-16T05:20:44.063Z,14.30
2018-05-16T05:21:15.709Z,14.40
2018-05-16T05:21:47.361Z,14.40
2018-05-16T05:22:19.033Z,14.40
2018-05-16T05:22:50.663Z,14.40
2018-05-16T05:23:22.281Z,14.40
2018-05-16T05:23:53.980Z,14.40
2018-05-16T05:24:25.596Z,14.50
2018-05-16T05:24:57.251Z,14.50
2018-05-16T05:25:28.889Z,14.50
2018-05-16T05:26:00.513Z,14.50
2018-05-16T05:26:32.213Z,14.60
2018-05-16T05:27:03.847Z,14.60
2018-05-16T05:27:35.475Z,14.60
2018-05-16T05:28:07.121Z,14.60
2018-05-16T05:28:38.751Z,14.60
2018-05-16T05:29:10.408Z,14.70
2018-05-16T05:29:42.051Z,14.60
2018-05-16T05:30:13.711Z,14.60
2018-05-16T05:30:45.367Z,14.60
2018-05-16T05:31:16.979Z,14.70
2018-05-16T05:31:48.639Z,14.80
2018-05-16T05:32:20.267Z,14.80
2018-05-16T05:32:51.897Z,14.80
2018-05-16T05:33:23.511Z,14.80
2018-05-16T05:33:55.135Z,14.80
2018-05-16T05:34:26.755Z,14.80
2018-05-16T05:34:58.446Z,14.90
2018-05-16T05:35:30.047Z,14.90
2018-05-16T05:36:01.682Z,14.90
2018-05-16T05:36:33.333Z,15.00
2018-05-16T05:37:04.975Z,15.00
2018-05-16T05:37:36.617Z,15.10
2018-05-16T05:38:08.264Z,14.90
2018-05-16T05:38:39.899Z,15.10
2018-05-16T05:39:11.549Z,15.10
2018-05-16T05:39:43.200Z,15.20
2018-05-16T05:40:14.845Z,15.10
2018-05-16T05:40:46.501Z,15.10
2018-05-16T05:41:18.160Z,15.20
2018-05-16T05:41:49.825Z,15.10
2018-05-16T05:42:21.468Z,15.20
2018-05-16T05:42:53.109Z,15.10
2018-05-16T05:43:24.829Z,15.30
2018-05-16T05:43:56.435Z,15.30
2018-05-16T05:44:28.055Z,15.20
2018-05-16T05:44:59.697Z,15.40
2018-05-16T05:45:31.342Z,15.40
2018-05-16T05:46:03.089Z,15.40
2018-05-16T05:46:34.789Z,15.40
2018-05-16T05:47:06.523Z,15.50
2018-05-16T05:47:38.169Z,15.50
2018-05-16T05:48:09.804Z,15.40
2018-05-16T05:48:41.427Z,15.60
2018-05-16T05:49:13.060Z,15.40
2018-05-16T05:49:44.693Z,15.40
2018-05-16T05:50:16.329Z,15.40
2018-05-16T05:50:48.002Z,15.50
2018-05-16T05:51:19.648Z,15.60
2018-05-16T05:51:51.283Z,15.40
2018-05-16T05:52:22.949Z,15.40
2018-05-16T05:52:54.583Z,15.40
2018-05-16T05:53:26.208Z,15.50
2018-05-16T05:53:57.864Z,15.60
2018-05-16T05:54:29.497Z,15.50
2018-05-16T05:55:01.126Z,15.50
2018-05-16T05:55:32.752Z,15.60
2018-05-16T05:56:04.458Z,15.60
2018-05-16T05:56:36.105Z,15.60
2018-05-16T05:57:07.779Z,15.50
2018-05-16T05:57:39.413Z,15.60
2018-05-16T05:58:11.083Z,15.60
2018-05-16T05:58:42.707Z,15.60
2018-05-16T05:59:14.361Z,15.70
2018-05-16T05:59:45.983Z,15.70
2018-05-16T06:00:17.641Z,15.70
2018-05-16T06:00:49.277Z,15.70
2018-05-16T06:01:20.912Z,15.90
2018-05-16T06:01:52.564Z,16.00
2018-05-16T06:02:24.213Z,16.10
2018-05-16T06:02:55.860Z,16.20
2018-05-16T06:03:27.497Z,16.30
2018-05-16T06:03:59.117Z,16.20
2018-05-16T06:04:30.764Z,16.30
2018-05-16T06:05:02.433Z,16.30
2018-05-16T06:05:34.076Z,16.40
2018-05-16T06:06:05.710Z,16.40
2018-05-16T06:06:37.405Z,16.60
2018-05-16T06:07:09.087Z,16.60
2018-05-16T06:07:40.719Z,16.70
2018-05-16T06:08:12.344Z,16.60
2018-05-16T06:08:43.964Z,16.70
2018-05-16T06:09:15.626Z,16.80
2018-05-16T06:09:47.249Z,16.90
2018-05-16T06:10:18.873Z,16.90
2018-05-16T06:10:50.488Z,16.80
2018-05-16T06:11:22.130Z,16.90
2018-05-16T06:11:53.759Z,17.00
2018-05-16T06:12:25.426Z,16.70
2018-05-16T06:12:57.082Z,16.80
2018-05-16T06:13:28.715Z,16.80
2018-05-16T06:14:00.353Z,16.80
2018-05-16T06:14:32.035Z,16.80
2018-05-16T06:15:03.698Z,16.90
2018-05-16T06:15:35.330Z,16.70
2018-05-16T06:16:06.969Z,16.90
2018-05-16T06:16:38.623Z,17.00
2018-05-16T06:17:10.258Z,17.00
2018-05-16T06:17:41.895Z,17.00
2018-05-16T06:18:13.530Z,17.00
2018-05-16T06:18:45.179Z,16.90
2018-05-16T06:19:16.800Z,17.00
2018-05-16T06:19:48.582Z,17.00
2018-05-16T06:20:20.162Z,17.00
2018-05-16T06:20:51.814Z,17.20
2018-05-16T06:21:23.451Z,17.20
2018-05-16T06:21:55.089Z,17.20
2018-05-16T06:22:26.710Z,17.20
2018-05-16T06:22:58.346Z,17.40
2018-05-16T06:23:30.001Z,17.40
2018-05-16T06:24:16.554Z,17.30
2018-05-16T06:24:48.197Z,17.20
2018-05-16T06:25:19.886Z,17.30
2018-05-16T06:25:51.519Z,17.40
2018-05-16T06:27:58.348Z,17.50
2018-05-16T06:28:30.029Z,17.30
2018-05-16T06:29:01.655Z,17.20
2018-05-16T06:29:33.289Z,17.40
2018-05-16T06:30:04.940Z,17.20
2018-05-16T06:30:36.594Z,17.40
2018-05-16T06:31:08.244Z,17.50
2018-05-16T06:31:39.889Z,17.50
2018-05-16T06:32:11.528Z,17.50
2018-05-16T06:32:43.186Z,17.40
2018-05-16T06:33:14.834Z,17.50
2018-05-16T06:33:46.458Z,17.50
2018-05-16T06:34:18.080Z,17.60
2018-05-16T06:34:49.720Z,17.50
2018-05-16T06:35:21.338Z,17.70
2018-05-16T06:35:52.966Z,17.60
2018-05-16T06:36:24.622Z,17.70
2018-05-16T06:36:56.300Z,17.70
2018-05-16T06:37:27.940Z,17.80
2018-05-16T06:37:59.602Z,18.00
2018-05-16T06:38:31.229Z,18.00
2018-05-16T06:39:02.937Z,18.10
2018-05-16T06:39:34.617Z,18.30
2018-05-16T06:40:06.270Z,18.20
2018-05-16T06:40:37.914Z,17.80
2018-05-16T06:41:09.790Z,17.90
2018-05-16T06:41:41.426Z,17.90
2018-05-16T06:42:13.057Z,17.80
2018-05-16T06:42:44.678Z,18.00
2018-05-16T06:43:16.318Z,17.90
2018-05-16T06:43:47.946Z,18.10
2018-05-16T06:44:19.576Z,18.00
2018-05-16T06:44:51.222Z,17.80
2018-05-16T06:45:22.856Z,18.30
2018-05-16T06:45:54.536Z,18.70
2018-05-16T06:46:26.122Z,19.00
2018-05-16T06:46:57.754Z,19.60
2018-05-16T06:47:29.388Z,20.20
2018-05-16T06:48:01.014Z,20.20
2018-05-16T06:48:32.648Z,20.10
2018-05-16T06:49:04.313Z,20.00
2018-05-16T06:49:35.964Z,20.00
2018-05-16T06:50:07.590Z,20.20
2018-05-16T06:50:39.229Z,20.40
2018-05-16T06:51:10.864Z,20.60
2018-05-16T06:51:42.492Z,21.00
2018-05-16T06:52:14.133Z,20.90
2018-05-16T06:52:45.770Z,20.70
2018-05-16T06:53:17.390Z,20.70
2018-05-16T06:53:48.994Z,20.40
2018-05-16T06:54:20.606Z,20.50
2018-05-16T06:54:52.252Z,20.40
2018-05-16T06:55:23.898Z,20.20